sensor_id;sensor_type;location;lat;lon;timestamp;pressure;altitude;pressure_sealevel;temperature;humidity
74075;BME280;62428;51.412;5.432;2023-08-06T00:01:48;100221.97;;;15.07;100.00
74075;BME280;62428;51.412;5.432;2023-08-06T00:04:13;100222.31;;;15.06;100.00
74075;BME280;62428;51.412;5.432;2023-08-06T00:06:39;100222.31;;;15.06;100.00
74075;BME280;62428;51.412;5.432;2023-08-06T00:09:04;100224.56;;;15.04;100.00
74075;BME280;62428;51.412;5.432;2023-08-06T00:11:30;100231.13;;;15.03;100.00
74075;BME280;62428;51.412;5.432;2023-08-06T00:13:55;100225.72;;;15.03;100.00
74075;BME280;62428;51.412;5.432;2023-08-06T00:16:20;100224.56;;;15.04;100.00
74075;BME280;62428;51.412;5.432;2023-08-06T00:18:46;100222.31;;;15.06;100.00
74075;BME280;62428;51.412;5.432;2023-08-06T00:21:11;100215.34;;;15.05;100.00
74075;BME280;62428;51.412;5.432;2023-08-06T00:23:40;100218.50;;;15.07;100.00
74075;BME280;62428;51.412;5.432;2023-08-06T00:26:05;100213.41;;;15.05;100.00
74075;BME280;62428;51.412;5.432;2023-08-06T00:28:31;100209.59;;;15.06;100.00
74075;BME280;62428;51.412;5.432;2023-08-06T00:30:56;100214.69;;;15.08;100.00
74075;BME280;62428;51.412;5.432;2023-08-06T00:33:24;100210.72;;;15.05;100.00
74075;BME280;62428;51.412;5.432;2023-08-06T00:35:50;100212.97;;;15.03;100.00
74075;BME280;62428;51.412;5.432;2023-08-06T00:38:16;100205.53;;;15.00;100.00
74075;BME280;62428;51.412;5.432;2023-08-06T00:40:42;100210.03;;;14.96;100.00
74075;BME280;62428;51.412;5.432;2023-08-06T00:43:07;100207.66;;;14.94;100.00
74075;BME280;62428;51.412;5.432;2023-08-06T00:45:35;100207.66;;;14.94;100.00
74075;BME280;62428;51.412;5.432;2023-08-06T00:48:02;100203.72;;;14.92;100.00
74075;BME280;62428;51.412;5.432;2023-08-06T00:50:28;100208.34;;;14.91;100.00
74075;BME280;62428;51.412;5.432;2023-08-06T00:52:54;100205.66;;;14.91;100.00
74075;BME280;62428;51.412;5.432;2023-08-06T00:55:20;100200.22;;;14.91;100.00
74075;BME280;62428;51.412;5.432;2023-08-06T00:57:45;100201.00;;;14.92;100.00
74075;BME280;62428;51.412;5.432;2023-08-06T01:00:11;100200.22;;;14.91;100.00
74075;BME280;62428;51.412;5.432;2023-08-06T01:02:37;100201.34;;;14.90;100.00
74075;BME280;62428;51.412;5.432;2023-08-06T01:05:03;100199.88;;;14.93;100.00
74075;BME280;62428;51.412;5.432;2023-08-06T01:07:42;100201.13;;;14.95;100.00
74075;BME280;62428;51.412;5.432;2023-08-06T01:10:24;100200.34;;;14.95;100.00
74075;BME280;62428;51.412;5.432;2023-08-06T01:15:36;100194.94;;;14.95;100.00
74075;BME280;62428;51.412;5.432;2023-08-06T01:18:04;100200.00;;;14.96;100.00
74075;BME280;62428;51.412;5.432;2023-08-06T01:20:30;100200.00;;;14.96;100.00
74075;BME280;62428;51.412;5.432;2023-08-06T01:22:56;100205.75;;;14.95;100.00
74075;BME280;62428;51.412;5.432;2023-08-06T01:25:25;100203.06;;;14.95;100.00
74075;BME280;62428;51.412;5.432;2023-08-06T01:27:58;100204.16;;;14.94;100.00
74075;BME280;62428;51.412;5.432;2023-08-06T01:30:31;100204.94;;;14.94;100.00
74075;BME280;62428;51.412;5.432;2023-08-06T01:33:04;100194.13;;;14.94;100.00
74075;BME280;62428;51.412;5.432;2023-08-06T01:35:30;100197.66;;;14.95;100.00
74075;BME280;62428;51.412;5.432;2023-08-06T01:37:58;100198.44;;;14.95;100.00
74075;BME280;62428;51.412;5.432;2023-08-06T01:40:24;100194.47;;;14.93;100.00
74075;BME280;62428;51.412;5.432;2023-08-06T01:42:52;100194.81;;;14.91;100.00
74075;BME280;62428;51.412;5.432;2023-08-06T01:45:17;100191.31;;;14.91;100.00
74075;BME280;62428;51.412;5.432;2023-08-06T01:47:43;100192.13;;;14.91;100.00
74075;BME280;62428;51.412;5.432;2023-08-06T01:50:08;100194.34;;;14.89;100.00
74075;BME280;62428;51.412;5.432;2023-08-06T01:52:34;100188.16;;;14.89;100.00
74075;BME280;62428;51.412;5.432;2023-08-06T01:54:59;100196.28;;;14.89;100.00
74075;BME280;62428;51.412;5.432;2023-08-06T01:57:25;100197.75;;;14.86;100.00
74075;BME280;62428;51.412;5.432;2023-08-06T01:59:51;100187.25;;;14.85;100.00
74075;BME280;62428;51.412;5.432;2023-08-06T02:02:16;100188.38;;;14.84;100.00
74075;BME280;62428;51.412;5.432;2023-08-06T02:04:42;100195.69;;;14.83;100.00
74075;BME280;62428;51.412;5.432;2023-08-06T02:07:08;100192.53;;;14.81;100.00
74075;BME280;62428;51.412;5.432;2023-08-06T02:09:33;100186.69;;;14.79;100.00
74075;BME280;62428;51.412;5.432;2023-08-06T02:12:00;100187.81;;;14.78;100.00
74075;BME280;62428;51.412;5.432;2023-08-06T02:14:26;100193.22;;;14.78;100.00
74075;BME280;62428;51.412;5.432;2023-08-06T02:16:51;100190.06;;;14.76;100.00
74075;BME280;62428;51.412;5.432;2023-08-06T02:19:16;100184.19;;;14.74;100.00
74075;BME280;62428;51.412;5.432;2023-08-06T02:21:42;100184.66;;;14.76;100.00
74075;BME280;62428;51.412;5.432;2023-08-06T02:24:07;100181.94;;;14.76;100.00
74075;BME280;62428;51.412;5.432;2023-08-06T02:26:33;100184.66;;;14.76;100.00
74075;BME280;62428;51.412;5.432;2023-08-06T02:28:58;100181.63;;;14.77;100.00
74075;BME280;62428;51.412;5.432;2023-08-06T02:31:23;100187.81;;;14.78;100.00
74075;BME280;62428;51.412;5.432;2023-08-06T02:33:49;100178.91;;;14.77;100.00
74075;BME280;62428;51.412;5.432;2023-08-06T02:36:14;100181.28;;;14.79;100.00
74075;BME280;62428;51.412;5.432;2023-08-06T02:38:39;100180.50;;;14.78;100.00
74075;BME280;62428;51.412;5.432;2023-08-06T02:41:05;100179.34;;;14.79;100.00
74075;BME280;62428;51.412;5.432;2023-08-06T02:43:31;100183.66;;;14.80;100.00
74075;BME280;62428;51.412;5.432;2023-08-06T02:45:58;100189.06;;;14.80;100.00
74075;BME280;62428;51.412;5.432;2023-08-06T02:48:23;100188.25;;;14.80;100.00
74075;BME280;62428;51.412;5.432;2023-08-06T02:50:48;100180.94;;;14.80;100.00
74075;BME280;62428;51.412;5.432;2023-08-06T02:53:14;100178.25;;;14.80;100.00
74075;BME280;62428;51.412;5.432;2023-08-06T02:55:45;100181.28;;;14.79;100.00
74075;BME280;62428;51.412;5.432;2023-08-06T02:58:11;100176.97;;;14.78;100.00
74075;BME280;62428;51.412;5.432;2023-08-06T03:00:37;100171.91;;;14.76;100.00
74075;BME280;62428;51.412;5.432;2023-08-06T03:03:02;100171.91;;;14.76;100.00
74075;BME280;62428;51.412;5.432;2023-08-06T03:05:27;100170.00;;;14.77;100.00
74075;BME280;62428;51.412;5.432;2023-08-06T03:07:53;100170.00;;;14.77;100.00
74075;BME280;62428;51.412;5.432;2023-08-06T03:10:18;100171.13;;;14.76;100.00
74075;BME280;62428;51.412;5.432;2023-08-06T03:12:45;100175.41;;;14.77;100.00
74075;BME280;62428;51.412;5.432;2023-08-06T03:15:10;100175.41;;;14.77;100.00
74075;BME280;62428;51.412;5.432;2023-08-06T03:17:35;100178.13;;;14.77;100.00
74075;BME280;62428;51.412;5.432;2023-08-06T03:20:01;100171.13;;;14.76;100.00
74075;BME280;62428;51.412;5.432;2023-08-06T03:22:26;100170.34;;;14.75;100.00
74075;BME280;62428;51.412;5.432;2023-08-06T03:24:51;100174.28;;;14.78;100.00
74075;BME280;62428;51.412;5.432;2023-08-06T03:27:17;100182.06;;;14.79;100.00
74075;BME280;62428;51.412;5.432;2023-08-06T03:29:42;100181.72;;;14.81;100.00
74075;BME280;62428;51.412;5.432;2023-08-06T03:32:07;100177.78;;;14.78;100.00
74075;BME280;62428;51.412;5.432;2023-08-06T03:34:33;100181.63;;;14.77;100.00
74075;BME280;62428;51.412;5.432;2023-08-06T03:36:58;100177.31;;;14.76;100.00
74075;BME280;62428;51.412;5.432;2023-08-06T03:39:24;100177.78;;;14.78;100.00
74075;BME280;62428;51.412;5.432;2023-08-06T03:41:49;100181.28;;;14.79;100.00
74075;BME280;62428;51.412;5.432;2023-08-06T03:44:14;100176.97;;;14.78;100.00
74075;BME280;62428;51.412;5.432;2023-08-06T03:46:40;100177.31;;;14.76;100.00
74075;BME280;62428;51.412;5.432;2023-08-06T03:49:05;100174.59;;;14.76;100.00
74075;BME280;62428;51.412;5.432;2023-08-06T03:51:30;100184.66;;;14.76;100.00
74075;BME280;62428;51.412;5.432;2023-08-06T03:53:56;100180.84;;;14.77;100.00
74075;BME280;62428;51.412;5.432;2023-08-06T03:56:21;100185.09;;;14.78;100.00
74075;BME280;62428;51.412;5.432;2023-08-06T03:58:46;100188.63;;;14.78;100.00
74075;BME280;62428;51.412;5.432;2023-08-06T04:01:12;100192.75;;;14.76;100.00
74075;BME280;62428;51.412;5.432;2023-08-06T04:03:37;100191.97;;;14.75;100.00
74075;BME280;62428;51.412;5.432;2023-08-06T04:06:03;100194.34;;;14.77;100.00
74075;BME280;62428;51.412;5.432;2023-08-06T04:08:28;100186.25;;;14.77;100.00
74075;BME280;62428;51.412;5.432;2023-08-06T04:10:54;100190.84;;;14.76;100.00
74075;BME280;62428;51.412;5.432;2023-08-06T04:13:19;100195.47;;;14.76;100.00
74075;BME280;62428;51.412;5.432;2023-08-06T04:15:45;100193.53;;;14.76;100.00
74075;BME280;62428;51.412;5.432;2023-08-06T04:18:11;100191.66;;;14.77;100.00
74075;BME280;62428;51.412;5.432;2023-08-06T04:20:46;100193.22;;;14.78;100.00
74075;BME280;62428;51.412;5.432;2023-08-06T04:23:14;100200.53;;;14.77;100.00
74075;BME280;62428;51.412;5.432;2023-08-06T04:25:39;100205.16;;;14.77;100.00
74075;BME280;62428;51.412;5.432;2023-08-06T04:28:05;100197.06;;;14.77;100.00
74075;BME280;62428;51.412;5.432;2023-08-06T04:30:30;100205.50;;;14.75;100.00
74075;BME280;62428;51.412;5.432;2023-08-06T04:32:59;100206.28;;;14.76;100.00
74075;BME280;62428;51.412;5.432;2023-08-06T04:35:25;100208.53;;;14.74;100.00
74075;BME280;62428;51.412;5.432;2023-08-06T04:37:50;100212.00;;;14.74;100.00
74075;BME280;62428;51.412;5.432;2023-08-06T04:40:16;100214.59;;;14.71;100.00
74075;BME280;62428;51.412;5.432;2023-08-06T04:42:41;100212.22;;;14.69;100.00
74075;BME280;62428;51.412;5.432;2023-08-06T04:45:07;100215.72;;;14.70;100.00
74075;BME280;62428;51.412;5.432;2023-08-06T04:47:32;100217.31;;;14.71;100.00
74075;BME280;62428;51.412;5.432;2023-08-06T04:49:58;100216.19;;;14.72;100.00
74075;BME280;62428;51.412;5.432;2023-08-06T04:52:23;100227.00;;;14.72;100.00
74075;BME280;62428;51.412;5.432;2023-08-06T04:54:52;100222.72;;;14.71;100.00
74075;BME280;62428;51.412;5.432;2023-08-06T04:57:18;100230.81;;;14.71;100.00
74075;BME280;62428;51.412;5.432;2023-08-06T04:59:43;100222.38;;;14.72;100.00
74075;BME280;62428;51.412;5.432;2023-08-06T05:02:08;100223.97;;;14.73;100.00
74075;BME280;62428;51.412;5.432;2023-08-06T05:04:34;100228.22;;;14.74;100.00
74075;BME280;62428;51.412;5.432;2023-08-06T05:06:59;100236.47;;;14.78;100.00
74075;BME280;62428;51.412;5.432;2023-08-06T05:09:26;100232.66;;;14.79;100.00
74075;BME280;62428;51.412;5.432;2023-08-06T05:11:52;100242.00;;;14.82;100.00
74075;BME280;62428;51.412;5.432;2023-08-06T05:14:17;100236.25;;;14.83;100.00
74075;BME280;62428;51.412;5.432;2023-08-06T05:16:43;100236.72;;;14.85;100.00
74075;BME280;62428;51.412;5.432;2023-08-06T05:19:08;100240.69;;;14.88;100.00
74075;BME280;62428;51.412;5.432;2023-08-06T05:21:33;100244.94;;;14.89;100.00
74075;BME280;62428;51.412;5.432;2023-08-06T05:23:59;100253.19;;;14.92;100.00
74075;BME280;62428;51.412;5.432;2023-08-06T05:26:24;100250.16;;;14.94;100.00
74075;BME280;62428;51.412;5.432;2023-08-06T05:28:49;100255.22;;;14.95;100.00
74075;BME280;62428;51.412;5.432;2023-08-06T05:31:15;100254.53;;;14.98;100.00
74075;BME280;62428;51.412;5.432;2023-08-06T05:33:40;100261.22;;;15.01;100.00
74075;BME280;62428;51.412;5.432;2023-08-06T05:36:05;100252.75;;;15.03;100.00
74075;BME280;62428;51.412;5.432;2023-08-06T05:38:31;100260.19;;;15.06;100.00
74075;BME280;62428;51.412;5.432;2023-08-06T05:40:56;100271.94;;;15.10;100.00
74075;BME280;62428;51.412;5.432;2023-08-06T05:43:22;100276.31;;;15.14;100.00
74075;BME280;62428;51.412;5.432;2023-08-06T05:45:49;100279.16;;;15.18;100.00
74075;BME280;62428;51.412;5.432;2023-08-06T05:48:15;100272.63;;;15.19;100.00
74075;BME280;62428;51.412;5.432;2023-08-06T05:50:40;100280.06;;;15.22;100.00
74075;BME280;62428;51.412;5.432;2023-08-06T05:53:06;100280.53;;;15.24;100.00
74075;BME280;62428;51.412;5.432;2023-08-06T05:55:31;100284.47;;;15.27;100.00
74075;BME280;62428;51.412;5.432;2023-08-06T05:57:58;100292.72;;;15.30;100.00
74075;BME280;62428;51.412;5.432;2023-08-06T06:00:23;100287.41;;;15.34;100.00
74075;BME280;62428;51.412;5.432;2023-08-06T06:02:49;100291.69;;;15.35;100.00
74075;BME280;62428;51.412;5.432;2023-08-06T06:05:14;100299.13;;;15.38;100.00
74075;BME280;62428;51.412;5.432;2023-08-06T06:07:39;100298.34;;;15.37;100.00
74075;BME280;62428;51.412;5.432;2023-08-06T06:10:05;100310.75;;;15.38;100.00
74075;BME280;62428;51.412;5.432;2023-08-06T06:12:31;100307.72;;;15.40;100.00
74075;BME280;62428;51.412;5.432;2023-08-06T06:14:56;100310.88;;;15.42;100.00
74075;BME280;62428;51.412;5.432;2023-08-06T06:17:21;100317.88;;;15.43;100.00
74075;BME280;62428;51.412;5.432;2023-08-06T06:19:47;100321.34;;;15.44;100.00
74075;BME280;62428;51.412;5.432;2023-08-06T06:22:13;100321.25;;;15.40;100.00
74075;BME280;62428;51.412;5.432;2023-08-06T06:24:39;100323.94;;;15.40;100.00
74075;BME280;62428;51.412;5.432;2023-08-06T06:27:04;100332.88;;;15.41;100.00
74075;BME280;62428;51.412;5.432;2023-08-06T06:29:30;100333.66;;;15.41;100.00
74075;BME280;62428;51.412;5.432;2023-08-06T06:31:55;100337.16;;;15.42;100.00
74075;BME280;62428;51.412;5.432;2023-08-06T06:34:20;100336.69;;;15.40;100.00
74075;BME280;62428;51.412;5.432;2023-08-06T06:36:47;100352.50;;;15.37;100.00
74075;BME280;62428;51.412;5.432;2023-08-06T06:39:12;100348.88;;;15.33;100.00
74075;BME280;62428;51.412;5.432;2023-08-06T06:41:37;100346.84;;;15.30;100.00
74075;BME280;62428;51.412;5.432;2023-08-06T06:44:03;100352.91;;;15.27;100.00
74075;BME280;62428;51.412;5.432;2023-08-06T06:46:28;100361.34;;;15.26;100.00
74075;BME280;62428;51.412;5.432;2023-08-06T06:48:54;100364.63;;;15.19;100.00
74075;BME280;62428;51.412;5.432;2023-08-06T06:51:19;100378.88;;;15.07;100.00
74075;BME280;62428;51.412;5.432;2023-08-06T06:53:44;100379.97;;;14.94;100.00
74075;BME280;62428;51.412;5.432;2023-08-06T06:56:10;100379.59;;;14.83;100.00
74075;BME280;62428;51.412;5.432;2023-08-06T06:58:35;100383.16;;;14.75;100.00
74075;BME280;62428;51.412;5.432;2023-08-06T07:01:01;100386.72;;;14.67;100.00
74075;BME280;62428;51.412;5.432;2023-08-06T07:03:26;100384.88;;;14.58;100.00
74075;BME280;62428;51.412;5.432;2023-08-06T07:05:56;100393.78;;;14.50;100.00
74075;BME280;62428;51.412;5.432;2023-08-06T07:08:22;100402.75;;;14.42;100.00
74075;BME280;62428;51.412;5.432;2023-08-06T07:10:47;100400.56;;;14.35;100.00
74075;BME280;62428;51.412;5.432;2023-08-06T07:13:12;100392.97;;;14.29;100.00
74075;BME280;62428;51.412;5.432;2023-08-06T07:15:38;100411.59;;;14.21;100.00
74075;BME280;62428;51.412;5.432;2023-08-06T07:18:03;100403.69;;;14.16;100.00
74075;BME280;62428;51.412;5.432;2023-08-06T07:20:28;100420.25;;;14.15;100.00
74075;BME280;62428;51.412;5.432;2023-08-06T07:22:57;100422.13;;;14.14;100.00
74075;BME280;62428;51.412;5.432;2023-08-06T07:25:22;100422.13;;;14.14;100.00
74075;BME280;62428;51.412;5.432;2023-08-06T07:27:47;100427.53;;;14.14;100.00
74075;BME280;62428;51.412;5.432;2023-08-06T07:30:13;100435.63;;;14.14;100.00
74075;BME280;62428;51.412;5.432;2023-08-06T07:32:38;100439.16;;;14.15;100.00
74075;BME280;62428;51.412;5.432;2023-08-06T07:35:04;100436.44;;;14.15;100.00
74075;BME280;62428;51.412;5.432;2023-08-06T07:37:29;100445.97;;;14.12;100.00
74075;BME280;62428;51.412;5.432;2023-08-06T07:39:55;100451.38;;;14.12;100.00
74075;BME280;62428;51.412;5.432;2023-08-06T07:42:21;100452.50;;;14.11;100.00
74075;BME280;62428;51.412;5.432;2023-08-06T07:44:54;100463.31;;;14.11;100.00
74075;BME280;62428;51.412;5.432;2023-08-06T07:47:20;100456.78;;;14.12;100.00
74075;BME280;62428;51.412;5.432;2023-08-06T07:49:46;100461.72;;;14.10;100.00
74075;BME280;62428;51.412;5.432;2023-08-06T07:52:11;100464.75;;;14.09;100.00
74075;BME280;62428;51.412;5.432;2023-08-06T07:54:36;100461.56;;;14.07;100.00
74075;BME280;62428;51.412;5.432;2023-08-06T07:57:02;100466.97;;;14.07;100.00
74075;BME280;62428;51.412;5.432;2023-08-06T07:59:27;100469.69;;;14.07;100.00
74075;BME280;62428;51.412;5.432;2023-08-06T08:01:53;100472.69;;;14.05;100.00
74075;BME280;62428;51.412;5.432;2023-08-06T08:04:18;100475.88;;;14.07;100.00
74075;BME280;62428;51.412;5.432;2023-08-06T08:06:43;100470.97;;;14.09;100.00
74075;BME280;62428;51.412;5.432;2023-08-06T08:09:09;100474.44;;;14.10;100.00
74075;BME280;62428;51.412;5.432;2023-08-06T08:11:34;100479.06;;;14.09;100.00
74075;BME280;62428;51.412;5.432;2023-08-06T08:13:59;100481.09;;;14.12;100.00
74075;BME280;62428;51.412;5.432;2023-08-06T08:16:25;100474.28;;;14.15;100.00
74075;BME280;62428;51.412;5.432;2023-08-06T08:18:50;100485.84;;;14.15;100.00
74075;BME280;62428;51.412;5.432;2023-08-06T08:21:16;100489.81;;;14.18;100.00
74075;BME280;62428;51.412;5.432;2023-08-06T08:23:41;100490.63;;;14.18;100.00
74075;BME280;62428;51.412;5.432;2023-08-06T08:26:07;100491.72;;;14.17;100.00
74075;BME280;62428;51.412;5.432;2023-08-06T08:28:33;100492.03;;;14.16;100.00
74075;BME280;62428;51.412;5.432;2023-08-06T08:30:58;100495.06;;;14.14;100.00
74075;BME280;62428;51.412;5.432;2023-08-06T08:33:23;100498.91;;;14.13;100.00
74075;BME280;62428;51.412;5.432;2023-08-06T08:35:49;100505.56;;;14.16;100.00
74075;BME280;62428;51.412;5.432;2023-08-06T08:38:14;100514.44;;;14.16;100.00
74075;BME280;62428;51.412;5.432;2023-08-06T08:40:45;100510.31;;;14.19;100.00
74075;BME280;62428;51.412;5.432;2023-08-06T08:43:12;100512.38;;;14.22;100.00
74075;BME280;62428;51.412;5.432;2023-08-06T08:45:39;100512.84;;;14.24;100.00
74075;BME280;62428;51.412;5.432;2023-08-06T08:48:05;100515.69;;;14.28;100.00
74075;BME280;62428;51.412;5.432;2023-08-06T08:50:31;100516.94;;;14.30;100.00
74075;BME280;62428;51.412;5.432;2023-08-06T08:52:57;100523.59;;;14.33;100.00
74075;BME280;62428;51.412;5.432;2023-08-06T08:55:22;100522.16;;;14.35;100.00
74075;BME280;62428;51.412;5.432;2023-08-06T08:57:48;100522.16;;;14.35;100.00
74075;BME280;62428;51.412;5.432;2023-08-06T09:00:14;100523.41;;;14.38;100.00
74075;BME280;62428;51.412;5.432;2023-08-06T09:02:41;100532.00;;;14.40;100.00
74075;BME280;62428;51.412;5.432;2023-08-06T09:05:07;100531.69;;;14.41;100.00
74075;BME280;62428;51.412;5.432;2023-08-06T09:07:42;100540.09;;;14.40;100.00
74075;BME280;62428;51.412;5.432;2023-08-06T09:10:11;100536.94;;;14.38;100.00
74075;BME280;62428;51.412;5.432;2023-08-06T09:12:39;100536.47;;;14.36;100.00
74075;BME280;62428;51.412;5.432;2023-08-06T09:15:05;100536.78;;;14.34;100.00
74075;BME280;62428;51.412;5.432;2023-08-06T09:17:30;100552.69;;;14.36;100.00
74075;BME280;62428;51.412;5.432;2023-08-06T09:19:56;100558.09;;;14.36;100.00
74075;BME280;62428;51.412;5.432;2023-08-06T09:22:21;100560.00;;;14.35;100.00
74075;BME280;62428;51.412;5.432;2023-08-06T09:24:46;100558.41;;;14.34;100.00
74075;BME280;62428;51.412;5.432;2023-08-06T09:27:15;100564.94;;;14.33;100.00
74075;BME280;62428;51.412;5.432;2023-08-06T09:29:42;100568.75;;;14.32;100.00
74075;BME280;62428;51.412;5.432;2023-08-06T09:32:08;100578.78;;;14.32;100.00
74075;BME280;62428;51.412;5.432;2023-08-06T09:34:33;100580.69;;;14.31;100.00
74075;BME280;62428;51.412;5.432;2023-08-06T09:36:59;100587.19;;;14.30;100.00
74075;BME280;62428;51.412;5.432;2023-08-06T09:39:28;100592.59;;;14.30;100.00
74075;BME280;62428;51.412;5.432;2023-08-06T09:41:56;100595.31;;;14.30;100.00
74075;BME280;62428;51.412;5.432;2023-08-06T09:44:23;100594.53;;;14.30;100.00
74075;BME280;62428;51.412;5.432;2023-08-06T09:46:51;100595.31;;;14.30;100.00
74075;BME280;62428;51.412;5.432;2023-08-06T09:49:18;100603.09;;;14.32;100.00
74075;BME280;62428;51.412;5.432;2023-08-06T09:51:45;100599.59;;;14.31;100.00
74075;BME280;62428;51.412;5.432;2023-08-06T09:54:15;100604.66;;;14.33;100.00
74075;BME280;62428;51.412;5.432;2023-08-06T09:56:42;100612.78;;;14.33;100.00
74075;BME280;62428;51.412;5.432;2023-08-06T09:59:07;100616.28;;;14.33;100.00
74075;BME280;62428;51.412;5.432;2023-08-06T10:01:36;100614.06;;;14.35;100.00
74075;BME280;62428;51.412;5.432;2023-08-06T10:04:03;100619.59;;;14.39;100.00
74075;BME280;62428;51.412;5.432;2023-08-06T10:06:29;100626.25;;;14.41;100.00
74075;BME280;62428;51.412;5.432;2023-08-06T10:08:55;100616.75;;;14.44;100.00
74075;BME280;62428;51.412;5.432;2023-08-06T10:11:24;100625.31;;;14.46;100.00
74075;BME280;62428;51.412;5.432;2023-08-06T10:13:54;100622.28;;;14.48;100.00
74075;BME280;62428;51.412;5.432;2023-08-06T10:16:21;100626.25;;;14.50;100.00
74075;BME280;62428;51.412;5.432;2023-08-06T10:18:47;100632.44;;;14.51;100.00
74075;BME280;62428;51.412;5.432;2023-08-06T10:21:13;100631.81;;;14.54;100.00
74075;BME280;62428;51.412;5.432;2023-08-06T10:23:40;100630.69;;;14.55;100.00
74075;BME280;62428;51.412;5.432;2023-08-06T10:26:05;100630.34;;;14.56;100.00
74075;BME280;62428;51.412;5.432;2023-08-06T10:28:36;100636.28;;;14.58;100.00
74075;BME280;62428;51.412;5.432;2023-08-06T10:31:01;100630.06;;;14.58;100.00
74075;BME280;62428;51.412;5.432;2023-08-06T10:33:43;100631.66;;;14.59;100.00
74075;BME280;62428;51.412;5.432;2023-08-06T10:36:09;100630.88;;;14.58;100.00
74075;BME280;62428;51.412;5.432;2023-08-06T10:38:35;100630.06;;;14.58;100.00
74075;BME280;62428;51.412;5.432;2023-08-06T10:41:35;100634.03;;;14.60;100.00
74075;BME280;62428;51.412;5.432;2023-08-06T10:44:07;100628.78;;;14.64;100.00
74075;BME280;62428;51.412;5.432;2023-08-06T10:46:36;100631.13;;;14.66;100.00
74075;BME280;62428;51.412;5.432;2023-08-06T10:49:03;100637.03;;;14.68;100.00
74075;BME280;62428;51.412;5.432;2023-08-06T10:51:28;100624.00;;;14.70;100.00
74075;BME280;62428;51.412;5.432;2023-08-06T10:53:54;100631.44;;;14.73;100.00
74075;BME280;62428;51.412;5.432;2023-08-06T10:56:24;100633.19;;;14.77;100.00
74075;BME280;62428;51.412;5.432;2023-08-06T10:58:54;100634.44;;;14.80;100.00
74075;BME280;62428;51.412;5.432;2023-08-06T11:01:21;100637.59;;;14.82;100.00
74075;BME280;62428;51.412;5.432;2023-08-06T11:03:47;100638.88;;;14.85;100.00
74075;BME280;62428;51.412;5.432;2023-08-06T11:06:18;100641.72;;;14.88;100.00
74075;BME280;62428;51.412;5.432;2023-08-06T11:08:53;100641.88;;;14.92;100.00
74075;BME280;62428;51.412;5.432;2023-08-06T11:11:20;100636.78;;;14.90;100.00
74075;BME280;62428;51.412;5.432;2023-08-06T11:13:47;100644.56;;;14.92;100.00
74075;BME280;62428;51.412;5.432;2023-08-06T11:16:14;100646.16;;;14.93;100.00
74075;BME280;62428;51.412;5.432;2023-08-06T11:18:41;100643.44;;;14.93;100.00
74075;BME280;62428;51.412;5.432;2023-08-06T11:21:09;100647.75;;;14.94;100.00
74075;BME280;62428;51.412;5.432;2023-08-06T11:23:37;100650.44;;;14.94;100.00
74075;BME280;62428;51.412;5.432;2023-08-06T11:26:02;100648.22;;;14.96;100.00
74075;BME280;62428;51.412;5.432;2023-08-06T11:28:28;100643.59;;;14.96;100.00
74075;BME280;62428;51.412;5.432;2023-08-06T11:30:54;100642.78;;;14.96;100.00
74075;BME280;62428;51.412;5.432;2023-08-06T11:33:25;100647.88;;;14.97;100.00
74075;BME280;62428;51.412;5.432;2023-08-06T11:35:56;100653.75;;;14.99;100.00
74075;BME280;62428;51.412;5.432;2023-08-06T11:38:24;100646.44;;;15.00;100.00
74075;BME280;62428;51.412;5.432;2023-08-06T11:40:50;100648.81;;;15.02;100.00
74075;BME280;62428;51.412;5.432;2023-08-06T11:43:18;100658.53;;;15.03;100.00
74075;BME280;62428;51.412;5.432;2023-08-06T11:45:44;100654.69;;;15.04;100.00
74075;BME280;62428;51.412;5.432;2023-08-06T11:48:09;100659.00;;;15.05;100.00
74075;BME280;62428;51.412;5.432;2023-08-06T11:50:38;100655.50;;;15.04;100.00
74075;BME280;62428;51.412;5.432;2023-08-06T11:53:06;100663.94;;;15.03;100.00
74075;BME280;62428;51.412;5.432;2023-08-06T11:55:33;100663.13;;;15.02;100.00
74075;BME280;62428;51.412;5.432;2023-08-06T11:58:03;100662.34;;;15.02;100.00
74075;BME280;62428;51.412;5.432;2023-08-06T12:00:29;100663.13;;;15.02;100.00
74075;BME280;62428;51.412;5.432;2023-08-06T12:02:55;100662.03;;;15.03;100.00
74075;BME280;62428;51.412;5.432;2023-08-06T12:05:23;100656.59;;;15.03;100.00
74075;BME280;62428;51.412;5.432;2023-08-06T12:07:54;100667.44;;;15.03;100.00
74075;BME280;62428;51.412;5.432;2023-08-06T12:10:21;100662.47;;;15.05;100.00
74075;BME280;62428;51.412;5.432;2023-08-06T12:12:46;100669.34;;;15.03;100.00
74075;BME280;62428;51.412;5.432;2023-08-06T12:15:12;100675.41;;;14.99;100.00
74075;BME280;62428;51.412;5.432;2023-08-06T12:17:38;100681.31;;;14.93;100.00
74075;BME280;62428;51.412;5.432;2023-08-06T12:20:05;100682.28;;;14.88;100.00
74075;BME280;62428;51.412;5.432;2023-08-06T12:22:31;100688.34;;;14.85;100.00
74075;BME280;62428;51.412;5.432;2023-08-06T12:25:03;100693.28;;;14.83;100.00
74075;BME280;62428;51.412;5.432;2023-08-06T12:27:29;100690.59;;;14.83;100.00
74075;BME280;62428;51.412;5.432;2023-08-06T12:29:54;100686.63;;;14.80;100.00
74075;BME280;62428;51.412;5.432;2023-08-06T12:32:20;100701.72;;;14.82;100.00
74075;BME280;62428;51.412;5.432;2023-08-06T12:34:45;100693.91;;;14.80;100.00
74075;BME280;62428;51.412;5.432;2023-08-06T12:37:10;100687.41;;;14.81;100.00
74075;BME280;62428;51.412;5.432;2023-08-06T12:39:36;100697.91;;;14.83;100.00